메인 페이지
METAR-TAF:

METAR-TAF

공항 :

핼리팩스 스탠필드 국제공항

핼리팩스, 노바스코샤, 캐나다

위도: 44-53N, 경도: 063-30W, 고도: 145m

현재 날씨관측

예보는 21분 전, 17:00시(UTC)에 발표되었습니다.
동남동17kt, 순간 최대 풍속 24kt
온도 3°C
습도 100%
기압 1016 hPa
시정: 4.8km
고도 300ft 상공 흐림
약한비, 박무

METAR: CYHZ 141700Z 11017G24KT 3SM -RA BR OVC003 03/03 A2999 RMK NS8 SLP162

시각: 13:21 (17:21 UTC)

예보

예보는 2 시간 42분 전, 14:39시(UTC)에 발표되었습니다.
예보 대상 시간: 14일 15시부터 15일 12시까지 (UTC)
동남동15kt, 순간 최대 풍속 25kt
시정: 9.7km
고도 500ft 상공 흐림
비, 박무
일시적
14일 15시부터 14일 24시까지 (UTC)
시정: 3.2km
고도 300ft 상공 흐림
약한비, 박무
전환 중
14일 20시부터 14일 22시까지 (UTC)
남남동12kt, 순간 최대 풍속 22kt
15일 0000시부터 (UTC)
20kt, 순간 최대 풍속 30kt
고도 300ft 상공 흐림
약한비, 박무
일시적
15일 01시부터 15일 04시까지 (UTC)
시정: 4.8km
고도 500ft 상공 흐림
비, 박무
15일 1100시부터 (UTC)
남남서22kt, 순간 최대 풍속 32kt
시정: 9.7km
고도 400ft 상공 구름 많음
약한이슬비, 박무

TAF: CYHZ 141439Z 1415/1512 12015G25KT 6SM RA BR OVC005 TEMPO 1415/1424 2SM -RA BR OVC003 BECMG 1420/1422 16012G22KT FM150000 18020G30KT 11/2SM -RA BR OVC003 TEMPO 1501/1504 3SM RA BR OVC005 FM151100 21022G32KT 6SM -DZ BR BKN004 RMK NXT FCST BY 141800Z

4,000개 이상의 공항 관측 자료 및 예보 (METAR 및 TAF 보고).

지도상에서 검색 가능한 기상관측소가 노란 점과 빨간 점으로 표시되어 있습니다.

기상관측소 명을 보려면 표시 위로 마우스를 이동하세요.

날씨 관측과 예보를 보려면 클릭하세요.

지도 변경 : 확대하려면 엑스 표시가 있는 녹색 버튼, 축소하려면 빼기 표시가 있는 녹색 버튼, 다음 페이지의 지도를 보려면 녹색 화살표를 클릭하세요.


METAR-TAF: